MST,Max TemperatureF,Mean TemperatureF,Min TemperatureF,Max Dew PointF,MeanDew PointF,Min DewpointF,Max Humidity, Mean Humidity, Min Humidity, Max Sea Level PressureIn, Mean Sea Level PressureIn, Min Sea Level PressureIn, Max VisibilityMiles, Mean VisibilityMiles, Min VisibilityMiles, Max Wind SpeedMPH, Mean Wind SpeedMPH, Max Gust SpeedMPH,PrecipitationIn, CloudCover, Events, WindDirDegrees
2012-11-1,72,50,29,38,33,27,93,59,24,30.07,29.96,29.86,10,10,10,15,3,21,0.00,0,,184
2012-11-2,57,43,29,38,35,28,92,70,45,30.16,29.99,29.85,10,10,10,29,6,37,0.00,0,,322
2012-11-3,63,44,26,36,30,25,95,68,31,30.22,30.15,30.09,10,10,10,12,4,,0.00,0,,227
2012-11-4,67,47,27,41,30,23,90,65,19,30.20,30.12,30.05,10,10,10,23,8,32,0.00,1,Rain,292
2012-11-5,60,44,27,37,32,25,94,69,33,30.23,30.13,30.02,10,10,10,10,5,,0.00,1,,251
2012-11-6,63,46,29,38,33,25,85,58,29,30.23,30.16,30.04,10,10,10,20,11,25,0.00,1,,324
2012-11-7,73,49,25,35,30,23,92,58,22,30.16,29.98,29.85,10,10,10,13,3,20,0.00,0,,182
2012-11-8,61,46,31,35,32,26,92,61,34,29.97,29.89,29.84,10,10,10,20,7,25,0.00,0,,39
2012-11-9,50,41,32,37,34,31,96,84,58,29.85,29.73,29.58,10,5,0,13,8,17,0.00,4,Fog,85
2012-11-10,42,32,22,39,32,16,97,88,74,29.89,29.62,29.51,10,6,0,29,9,33,0.04,7,Fog-Rain-Snow,12
2012-11-11,30,22,13,17,13,8,84,73,58,30.21,30.03,29.89,10,10,10,23,11,28,0.00,2,,299
2012-11-12,44,28,11,20,12,8,87,76,34,30.30,30.25,30.20,10,10,10,15,5,26,0.00,0,,257
2012-11-13,53,34,15,27,21,12,89,69,28,30.27,30.23,30.17,10,10,10,15,3,23,0.00,0,,288
2012-11-14,61,39,17,32,24,15,93,59,21,30.27,30.17,30.07,10,10,10,15,6,24,0.03,2,,259
2012-11-15,54,42,29,32,26,19,70,53,30,30.39,30.32,30.15,10,10,7,17,7,18,0.00,1,,6
2012-11-16,59,42,24,32,26,20,86,56,27,30.36,30.20,30.07,10,10,10,20,6,26,0.00,0,,194
2012-11-17,66,44,22,33,28,21,94,63,25,30.10,30.06,30.02,10,10,7,13,2,16,0.00,0,,300
2012-11-18,66,46,25,36,30,22,90,63,28,30.02,29.96,29.88,10,10,10,8,1,,0.00,0,,238
2012-11-19,63,46,29,35,29,24,87,62,30,30.20,30.14,30.02,10,10,10,12,5,,0.00,0,,285
2012-11-20,71,47,23,32,24,20,90,49,15,30.20,30.11,30.04,10,10,10,15,6,22,0.00,0,,247
2012-11-21,75,48,20,28,21,16,85,51,12,30.04,29.90,29.80,10,10,10,10,2,,0.00,0,,239
2012-11-22,54,41,28,33,21,6,75,47,16,30.45,30.11,29.82,10,10,4,37,14,47,0.00,0,,323
2012-11-23,49,31,13,20,14,10,87,55,25,30.54,30.40,30.17,10,10,10,12,5,17,0.00,0,,267
2012-11-24,70,44,18,24,18,10,80,48,13,30.16,29.96,29.83,10,10,7,17,5,28,0.00,0,,280
2012-11-25,52,37,22,32,24,15,84,62,45,30.09,29.96,29.86,10,10,10,13,5,18,0.00,1,,116
2012-11-26,34,29,24,28,25,20,89,79,64,30.39,30.28,30.09,10,10,10,14,7,17,0.00,6,Snow,80
2012-11-27,55,34,13,27,18,10,93,64,21,30.26,30.18,30.10,10,10,10,15,5,20,0.00,0,,259
2012-11-28,62,37,12,25,18,9,86,60,18,30.25,30.13,30.01,10,10,10,14,4,18,0.00,0,,233
2012-11-29,69,44,19,25,19,14,80,51,15,30.04,29.97,29.88,10,10,4,18,7,23,0.00,0,,266
2012-11-30,61,42,22,27,21,17,82,52,19,30.05,29.95,29.81,10,10,10,14,5,23,0.00,0,,197